sensor_id;sensor_type;location;lat;lon;timestamp;P1;durP1;ratioP1;P2;durP2;ratioP2
53977;SDS011;39886;47.984;-1.586;2023-02-21T00:01:52;4.20;;;3.15;;
53977;SDS011;39886;47.984;-1.586;2023-02-21T00:04:36;3.97;;;3.20;;
53977;SDS011;39886;47.984;-1.586;2023-02-21T00:07:20;3.63;;;3.10;;
53977;SDS011;39886;47.984;-1.586;2023-02-21T00:10:06;4.47;;;3.10;;
53977;SDS011;39886;47.984;-1.586;2023-02-21T00:12:50;3.83;;;3.15;;
53977;SDS011;39886;47.984;-1.586;2023-02-21T00:15:34;3.58;;;3.00;;
53977;SDS011;39886;47.984;-1.586;2023-02-21T00:18:18;4.47;;;3.20;;
53977;SDS011;39886;47.984;-1.586;2023-02-21T00:21:03;3.38;;;3.03;;
53977;SDS011;39886;47.984;-1.586;2023-02-21T00:23:47;4.07;;;3.38;;
53977;SDS011;39886;47.984;-1.586;2023-02-21T00:26:31;3.55;;;2.92;;
53977;SDS011;39886;47.984;-1.586;2023-02-21T00:29:15;3.88;;;3.17;;
53977;SDS011;39886;47.984;-1.586;2023-02-21T00:31:59;3.58;;;3.10;;
53977;SDS011;39886;47.984;-1.586;2023-02-21T00:34:43;3.30;;;3.00;;
53977;SDS011;39886;47.984;-1.586;2023-02-21T00:37:27;4.10;;;3.08;;
53977;SDS011;39886;47.984;-1.586;2023-02-21T00:40:13;4.07;;;3.30;;
53977;SDS011;39886;47.984;-1.586;2023-02-21T00:42:58;3.75;;;3.00;;
53977;SDS011;39886;47.984;-1.586;2023-02-21T00:45:43;3.67;;;2.90;;
53977;SDS011;39886;47.984;-1.586;2023-02-21T00:48:28;3.50;;;2.85;;
53977;SDS011;39886;47.984;-1.586;2023-02-21T00:51:13;3.95;;;3.20;;
53977;SDS011;39886;47.984;-1.586;2023-02-21T00:53:58;4.00;;;3.30;;
53977;SDS011;39886;47.984;-1.586;2023-02-21T00:56:42;4.18;;;3.22;;
53977;SDS011;39886;47.984;-1.586;2023-02-21T00:59:26;3.28;;;2.83;;
53977;SDS011;39886;47.984;-1.586;2023-02-21T01:02:10;3.83;;;2.92;;
53977;SDS011;39886;47.984;-1.586;2023-02-21T01:04:55;3.00;;;2.70;;
53977;SDS011;39886;47.984;-1.586;2023-02-21T01:07:39;2.95;;;2.65;;
53977;SDS011;39886;47.984;-1.586;2023-02-21T01:10:24;4.05;;;3.03;;
53977;SDS011;39886;47.984;-1.586;2023-02-21T01:13:08;3.05;;;2.75;;
53977;SDS011;39886;47.984;-1.586;2023-02-21T01:15:52;2.92;;;2.67;;
53977;SDS011;39886;47.984;-1.586;2023-02-21T01:18:36;3.45;;;2.90;;
53977;SDS011;39886;47.984;-1.586;2023-02-21T01:21:20;3.10;;;2.80;;
53977;SDS011;39886;47.984;-1.586;2023-02-21T01:24:05;4.40;;;2.97;;
53977;SDS011;39886;47.984;-1.586;2023-02-21T01:26:52;3.17;;;2.72;;
53977;SDS011;39886;47.984;-1.586;2023-02-21T01:29:36;3.22;;;2.92;;
53977;SDS011;39886;47.984;-1.586;2023-02-21T01:32:20;3.15;;;2.80;;
53977;SDS011;39886;47.984;-1.586;2023-02-21T01:35:04;3.30;;;2.90;;
53977;SDS011;39886;47.984;-1.586;2023-02-21T01:37:48;3.67;;;3.30;;
53977;SDS011;39886;47.984;-1.586;2023-02-21T01:40:33;3.28;;;2.88;;
53977;SDS011;39886;47.984;-1.586;2023-02-21T01:43:21;4.18;;;3.40;;
53977;SDS011;39886;47.984;-1.586;2023-02-21T01:46:25;3.63;;;3.30;;
53977;SDS011;39886;47.984;-1.586;2023-02-21T01:49:10;3.10;;;2.80;;
53977;SDS011;39886;47.984;-1.586;2023-02-21T01:51:59;3.97;;;3.25;;
53977;SDS011;39886;47.984;-1.586;2023-02-21T01:54:46;3.60;;;2.90;;
53977;SDS011;39886;47.984;-1.586;2023-02-21T01:57:33;3.92;;;3.03;;
53977;SDS011;39886;47.984;-1.586;2023-02-21T02:00:18;3.47;;;2.97;;
53977;SDS011;39886;47.984;-1.586;2023-02-21T02:03:05;3.67;;;3.00;;
53977;SDS011;39886;47.984;-1.586;2023-02-21T02:06:11;3.40;;;3.00;;
53977;SDS011;39886;47.984;-1.586;2023-02-21T02:08:58;3.58;;;2.80;;
53977;SDS011;39886;47.984;-1.586;2023-02-21T02:14:50;4.10;;;3.00;;
53977;SDS011;39886;47.984;-1.586;2023-02-21T02:17:53;4.18;;;3.20;;
53977;SDS011;39886;47.984;-1.586;2023-02-21T02:29:31;3.85;;;2.88;;
53977;SDS011;39886;47.984;-1.586;2023-02-21T02:38:10;3.20;;;2.90;;
53977;SDS011;39886;47.984;-1.586;2023-02-21T02:41:02;3.75;;;2.90;;
53977;SDS011;39886;47.984;-1.586;2023-02-21T02:51:38;3.47;;;2.97;;
53977;SDS011;39886;47.984;-1.586;2023-02-21T02:54:04;3.35;;;2.85;;
53977;SDS011;39886;47.984;-1.586;2023-02-21T02:56:30;3.25;;;2.95;;
53977;SDS011;39886;47.984;-1.586;2023-02-21T02:59:00;3.25;;;2.95;;
53977;SDS011;39886;47.984;-1.586;2023-02-21T03:14:51;3.85;;;3.10;;
53977;SDS011;39886;47.984;-1.586;2023-02-21T03:17:25;3.47;;;2.90;;
53977;SDS011;39886;47.984;-1.586;2023-02-21T03:19:54;3.00;;;2.70;;
53977;SDS011;39886;47.984;-1.586;2023-02-21T03:22:23;3.03;;;2.70;;
53977;SDS011;39886;47.984;-1.586;2023-02-21T03:24:54;3.00;;;2.70;;
53977;SDS011;39886;47.984;-1.586;2023-02-21T03:27:22;3.42;;;2.90;;
53977;SDS011;39886;47.984;-1.586;2023-02-21T03:29:51;3.20;;;2.90;;
53977;SDS011;39886;47.984;-1.586;2023-02-21T03:32:26;3.30;;;3.00;;
53977;SDS011;39886;47.984;-1.586;2023-02-21T03:34:53;3.40;;;3.10;;
53977;SDS011;39886;47.984;-1.586;2023-02-21T03:37:36;3.45;;;3.15;;
53977;SDS011;39886;47.984;-1.586;2023-02-21T03:40:07;3.22;;;2.92;;
53977;SDS011;39886;47.984;-1.586;2023-02-21T03:42:51;3.10;;;2.80;;
53977;SDS011;39886;47.984;-1.586;2023-02-21T03:45:19;3.00;;;2.70;;
53977;SDS011;39886;47.984;-1.586;2023-02-21T03:47:44;3.10;;;2.80;;
53977;SDS011;39886;47.984;-1.586;2023-02-21T03:50:10;2.70;;;2.50;;
53977;SDS011;39886;47.984;-1.586;2023-02-21T03:52:37;3.13;;;2.83;;
53977;SDS011;39886;47.984;-1.586;2023-02-21T03:55:02;3.13;;;2.83;;
53977;SDS011;39886;47.984;-1.586;2023-02-21T03:57:29;3.08;;;2.70;;
53977;SDS011;39886;47.984;-1.586;2023-02-21T03:59:54;3.05;;;2.75;;
53977;SDS011;39886;47.984;-1.586;2023-02-21T04:02:20;3.22;;;2.92;;
53977;SDS011;39886;47.984;-1.586;2023-02-21T04:04:46;2.95;;;2.63;;
53977;SDS011;39886;47.984;-1.586;2023-02-21T04:07:13;3.22;;;2.75;;
53977;SDS011;39886;47.984;-1.586;2023-02-21T04:09:39;3.03;;;2.72;;
53977;SDS011;39886;47.984;-1.586;2023-02-21T04:12:05;3.40;;;3.10;;
53977;SDS011;39886;47.984;-1.586;2023-02-21T04:14:31;3.08;;;2.70;;
53977;SDS011;39886;47.984;-1.586;2023-02-21T04:16:57;3.38;;;3.08;;
53977;SDS011;39886;47.984;-1.586;2023-02-21T04:19:23;2.70;;;2.50;;
53977;SDS011;39886;47.984;-1.586;2023-02-21T04:21:48;2.63;;;2.40;;
53977;SDS011;39886;47.984;-1.586;2023-02-21T04:24:14;2.60;;;2.40;;
53977;SDS011;39886;47.984;-1.586;2023-02-21T04:26:40;2.97;;;2.67;;
53977;SDS011;39886;47.984;-1.586;2023-02-21T04:29:06;2.78;;;2.58;;
53977;SDS011;39886;47.984;-1.586;2023-02-21T04:31:32;2.88;;;2.50;;
53977;SDS011;39886;47.984;-1.586;2023-02-21T04:33:58;2.65;;;2.45;;
53977;SDS011;39886;47.984;-1.586;2023-02-21T04:36:24;3.30;;;3.03;;
53977;SDS011;39886;47.984;-1.586;2023-02-21T04:38:50;3.20;;;2.58;;
53977;SDS011;39886;47.984;-1.586;2023-02-21T04:41:17;3.00;;;2.70;;
53977;SDS011;39886;47.984;-1.586;2023-02-21T04:43:43;2.75;;;2.55;;
53977;SDS011;39886;47.984;-1.586;2023-02-21T04:46:10;2.83;;;2.55;;
53977;SDS011;39886;47.984;-1.586;2023-02-21T04:48:44;2.90;;;2.58;;
53977;SDS011;39886;47.984;-1.586;2023-02-21T04:51:11;3.13;;;2.72;;
53977;SDS011;39886;47.984;-1.586;2023-02-21T04:53:38;3.00;;;2.78;;
53977;SDS011;39886;47.984;-1.586;2023-02-21T04:56:03;3.22;;;2.92;;
53977;SDS011;39886;47.984;-1.586;2023-02-21T04:58:30;2.92;;;2.65;;
53977;SDS011;39886;47.984;-1.586;2023-02-21T05:00:56;2.78;;;2.50;;
53977;SDS011;39886;47.984;-1.586;2023-02-21T05:03:21;2.65;;;2.45;;
53977;SDS011;39886;47.984;-1.586;2023-02-21T05:05:48;3.00;;;2.70;;
53977;SDS011;39886;47.984;-1.586;2023-02-21T05:08:15;2.90;;;2.65;;
53977;SDS011;39886;47.984;-1.586;2023-02-21T05:10:40;3.17;;;2.80;;
53977;SDS011;39886;47.984;-1.586;2023-02-21T05:13:06;3.30;;;3.00;;
53977;SDS011;39886;47.984;-1.586;2023-02-21T05:15:32;3.17;;;2.65;;
53977;SDS011;39886;47.984;-1.586;2023-02-21T05:17:58;2.80;;;2.55;;
53977;SDS011;39886;47.984;-1.586;2023-02-21T05:20:24;3.17;;;2.88;;
53977;SDS011;39886;47.984;-1.586;2023-02-21T05:22:50;2.85;;;2.60;;
53977;SDS011;39886;47.984;-1.586;2023-02-21T05:25:16;2.92;;;2.65;;
53977;SDS011;39886;47.984;-1.586;2023-02-21T05:27:44;2.80;;;2.50;;
53977;SDS011;39886;47.984;-1.586;2023-02-21T05:30:11;2.58;;;2.38;;
53977;SDS011;39886;47.984;-1.586;2023-02-21T05:32:38;3.00;;;2.45;;
53977;SDS011;39886;47.984;-1.586;2023-02-21T05:35:04;2.67;;;2.47;;
53977;SDS011;39886;47.984;-1.586;2023-02-21T05:37:30;2.50;;;2.30;;
53977;SDS011;39886;47.984;-1.586;2023-02-21T05:39:56;3.10;;;2.80;;
53977;SDS011;39886;47.984;-1.586;2023-02-21T05:42:22;2.83;;;2.40;;
53977;SDS011;39886;47.984;-1.586;2023-02-21T05:44:47;3.08;;;2.50;;
53977;SDS011;39886;47.984;-1.586;2023-02-21T05:47:13;2.60;;;2.40;;
53977;SDS011;39886;47.984;-1.586;2023-02-21T05:49:40;2.90;;;2.60;;
53977;SDS011;39886;47.984;-1.586;2023-02-21T05:52:06;2.42;;;2.22;;
53977;SDS011;39886;47.984;-1.586;2023-02-21T05:54:33;2.50;;;2.30;;
53977;SDS011;39886;47.984;-1.586;2023-02-21T05:56:59;2.58;;;2.38;;
53977;SDS011;39886;47.984;-1.586;2023-02-21T05:59:25;2.40;;;2.20;;
53977;SDS011;39886;47.984;-1.586;2023-02-21T06:01:50;3.05;;;2.75;;
53977;SDS011;39886;47.984;-1.586;2023-02-21T06:04:16;2.30;;;2.10;;
53977;SDS011;39886;47.984;-1.586;2023-02-21T06:06:43;2.65;;;2.45;;
53977;SDS011;39886;47.984;-1.586;2023-02-21T06:09:09;3.00;;;2.70;;
53977;SDS011;39886;47.984;-1.586;2023-02-21T06:11:36;2.75;;;2.55;;
53977;SDS011;39886;47.984;-1.586;2023-02-21T06:14:03;2.63;;;2.42;;
53977;SDS011;39886;47.984;-1.586;2023-02-21T06:16:34;2.42;;;2.22;;
53977;SDS011;39886;47.984;-1.586;2023-02-21T06:19:00;2.90;;;2.30;;
53977;SDS011;39886;47.984;-1.586;2023-02-21T06:21:27;2.75;;;2.55;;
53977;SDS011;39886;47.984;-1.586;2023-02-21T06:23:53;2.78;;;2.58;;
53977;SDS011;39886;47.984;-1.586;2023-02-21T06:26:19;2.90;;;2.60;;
53977;SDS011;39886;47.984;-1.586;2023-02-21T06:28:45;3.50;;;2.50;;
53977;SDS011;39886;47.984;-1.586;2023-02-21T06:31:12;2.85;;;2.65;;
53977;SDS011;39886;47.984;-1.586;2023-02-21T06:33:38;2.50;;;2.30;;
53977;SDS011;39886;47.984;-1.586;2023-02-21T06:36:07;2.70;;;2.47;;
53977;SDS011;39886;47.984;-1.586;2023-02-21T06:38:36;2.47;;;2.28;;
53977;SDS011;39886;47.984;-1.586;2023-02-21T06:41:05;2.60;;;2.40;;
53977;SDS011;39886;47.984;-1.586;2023-02-21T06:43:32;2.42;;;2.22;;
53977;SDS011;39886;47.984;-1.586;2023-02-21T06:45:59;2.60;;;2.40;;
53977;SDS011;39886;47.984;-1.586;2023-02-21T06:48:25;2.78;;;2.38;;
53977;SDS011;39886;47.984;-1.586;2023-02-21T06:50:51;2.38;;;2.17;;
53977;SDS011;39886;47.984;-1.586;2023-02-21T06:53:17;2.47;;;2.20;;
53977;SDS011;39886;47.984;-1.586;2023-02-21T06:55:42;3.28;;;2.45;;
53977;SDS011;39886;47.984;-1.586;2023-02-21T06:58:08;2.50;;;2.30;;
53977;SDS011;39886;47.984;-1.586;2023-02-21T07:00:34;2.75;;;2.42;;
53977;SDS011;39886;47.984;-1.586;2023-02-21T07:03:00;2.60;;;2.35;;
53977;SDS011;39886;47.984;-1.586;2023-02-21T07:05:26;3.10;;;2.42;;
53977;SDS011;39886;47.984;-1.586;2023-02-21T07:07:53;3.05;;;2.35;;
53977;SDS011;39886;47.984;-1.586;2023-02-21T07:10:19;2.70;;;2.50;;
53977;SDS011;39886;47.984;-1.586;2023-02-21T07:12:45;2.45;;;2.25;;
53977;SDS011;39886;47.984;-1.586;2023-02-21T07:15:10;2.50;;;2.30;;
53977;SDS011;39886;47.984;-1.586;2023-02-21T07:17:36;3.22;;;2.55;;
53977;SDS011;39886;47.984;-1.586;2023-02-21T07:20:02;2.28;;;2.08;;
53977;SDS011;39886;47.984;-1.586;2023-02-21T07:22:28;3.95;;;2.30;;
53977;SDS011;39886;47.984;-1.586;2023-02-21T07:24:55;3.70;;;2.30;;
53977;SDS011;39886;47.984;-1.586;2023-02-21T07:27:21;3.10;;;2.25;;
53977;SDS011;39886;47.984;-1.586;2023-02-21T07:29:47;2.40;;;2.20;;
53977;SDS011;39886;47.984;-1.586;2023-02-21T07:32:14;3.03;;;2.33;;
53977;SDS011;39886;47.984;-1.586;2023-02-21T07:34:40;2.80;;;2.53;;
53977;SDS011;39886;47.984;-1.586;2023-02-21T07:37:07;4.25;;;2.38;;
53977;SDS011;39886;47.984;-1.586;2023-02-21T07:39:33;3.65;;;2.40;;
53977;SDS011;39886;47.984;-1.586;2023-02-21T07:41:59;2.60;;;2.40;;
53977;SDS011;39886;47.984;-1.586;2023-02-21T07:44:25;3.17;;;2.50;;
53977;SDS011;39886;47.984;-1.586;2023-02-21T07:46:51;3.83;;;2.50;;
53977;SDS011;39886;47.984;-1.586;2023-02-21T07:49:17;3.78;;;2.50;;
53977;SDS011;39886;47.984;-1.586;2023-02-21T07:51:42;4.20;;;2.13;;
53977;SDS011;39886;47.984;-1.586;2023-02-21T07:54:08;3.80;;;2.20;;
53977;SDS011;39886;47.984;-1.586;2023-02-21T07:56:34;3.47;;;2.55;;
53977;SDS011;39886;47.984;-1.586;2023-02-21T07:59:00;2.92;;;2.17;;
53977;SDS011;39886;47.984;-1.586;2023-02-21T08:01:25;4.50;;;2.40;;
53977;SDS011;39886;47.984;-1.586;2023-02-21T08:03:52;2.92;;;2.10;;
53977;SDS011;39886;47.984;-1.586;2023-02-21T08:06:18;3.10;;;2.00;;
53977;SDS011;39886;47.984;-1.586;2023-02-21T08:08:44;2.90;;;2.50;;
53977;SDS011;39886;47.984;-1.586;2023-02-21T08:11:10;3.38;;;2.28;;
53977;SDS011;39886;47.984;-1.586;2023-02-21T08:13:35;2.97;;;2.22;;
53977;SDS011;39886;47.984;-1.586;2023-02-21T08:16:01;3.80;;;2.28;;
53977;SDS011;39886;47.984;-1.586;2023-02-21T08:18:27;4.63;;;2.30;;
53977;SDS011;39886;47.984;-1.586;2023-02-21T08:20:54;2.22;;;2.00;;
53977;SDS011;39886;47.984;-1.586;2023-02-21T08:23:23;4.25;;;2.20;;
53977;SDS011;39886;47.984;-1.586;2023-02-21T08:25:49;3.38;;;2.50;;
53977;SDS011;39886;47.984;-1.586;2023-02-21T08:28:15;3.03;;;2.33;;
53977;SDS011;39886;47.984;-1.586;2023-02-21T08:30:41;2.80;;;2.50;;
53977;SDS011;39886;47.984;-1.586;2023-02-21T08:33:07;2.75;;;2.13;;
53977;SDS011;39886;47.984;-1.586;2023-02-21T08:35:33;2.53;;;2.30;;
53977;SDS011;39886;47.984;-1.586;2023-02-21T08:37:59;2.50;;;2.00;;
53977;SDS011;39886;47.984;-1.586;2023-02-21T08:40:31;3.75;;;2.38;;
53977;SDS011;39886;47.984;-1.586;2023-02-21T08:42:57;4.13;;;2.60;;
53977;SDS011;39886;47.984;-1.586;2023-02-21T08:45:24;4.00;;;2.30;;
53977;SDS011;39886;47.984;-1.586;2023-02-21T08:47:51;7.03;;;2.30;;
53977;SDS011;39886;47.984;-1.586;2023-02-21T08:50:18;2.67;;;2.25;;
53977;SDS011;39886;47.984;-1.586;2023-02-21T08:52:45;2.42;;;1.98;;
53977;SDS011;39886;47.984;-1.586;2023-02-21T08:55:12;5.03;;;2.15;;
53977;SDS011;39886;47.984;-1.586;2023-02-21T08:57:38;3.75;;;2.40;;
53977;SDS011;39886;47.984;-1.586;2023-02-21T09:00:04;2.53;;;2.10;;
53977;SDS011;39886;47.984;-1.586;2023-02-21T09:02:34;3.50;;;2.17;;
53977;SDS011;39886;47.984;-1.586;2023-02-21T09:05:07;2.22;;;2.03;;
53977;SDS011;39886;47.984;-1.586;2023-02-21T09:07:38;3.83;;;2.40;;
53977;SDS011;39886;47.984;-1.586;2023-02-21T09:10:04;4.30;;;2.28;;
53977;SDS011;39886;47.984;-1.586;2023-02-21T09:12:31;3.75;;;2.15;;
53977;SDS011;39886;47.984;-1.586;2023-02-21T09:14:57;5.50;;;2.03;;
53977;SDS011;39886;47.984;-1.586;2023-02-21T09:17:22;2.72;;;2.10;;
53977;SDS011;39886;47.984;-1.586;2023-02-21T09:19:48;4.25;;;2.30;;
53977;SDS011;39886;47.984;-1.586;2023-02-21T09:22:14;6.30;;;2.42;;
53977;SDS011;39886;47.984;-1.586;2023-02-21T09:24:42;4.30;;;2.58;;
53977;SDS011;39886;47.984;-1.586;2023-02-21T09:27:08;5.13;;;2.30;;
53977;SDS011;39886;47.984;-1.586;2023-02-21T09:29:34;4.05;;;2.40;;
53977;SDS011;39886;47.984;-1.586;2023-02-21T09:32:01;3.25;;;2.30;;
53977;SDS011;39886;47.984;-1.586;2023-02-21T09:34:29;2.40;;;2.20;;
53977;SDS011;39886;47.984;-1.586;2023-02-21T09:36:55;2.38;;;2.17;;
53977;SDS011;39886;47.984;-1.586;2023-02-21T09:39:21;3.03;;;2.22;;
53977;SDS011;39886;47.984;-1.586;2023-02-21T09:41:48;4.57;;;2.15;;
53977;SDS011;39886;47.984;-1.586;2023-02-21T09:44:22;4.68;;;2.25;;
53977;SDS011;39886;47.984;-1.586;2023-02-21T09:47:09;4.00;;;2.20;;
53977;SDS011;39886;47.984;-1.586;2023-02-21T09:49:40;3.15;;;2.20;;
53977;SDS011;39886;47.984;-1.586;2023-02-21T09:52:29;3.33;;;2.08;;
53977;SDS011;39886;47.984;-1.586;2023-02-21T09:55:05;3.75;;;2.58;;
53977;SDS011;39886;47.984;-1.586;2023-02-21T09:57:38;4.03;;;2.30;;
53977;SDS011;39886;47.984;-1.586;2023-02-21T10:00:28;3.03;;;2.00;;
53977;SDS011;39886;47.984;-1.586;2023-02-21T10:09:05;3.22;;;2.30;;
53977;SDS011;39886;47.984;-1.586;2023-02-21T10:11:45;4.65;;;2.13;;
53977;SDS011;39886;47.984;-1.586;2023-02-21T10:17:10;4.40;;;2.00;;
53977;SDS011;39886;47.984;-1.586;2023-02-21T10:20:26;5.80;;;2.20;;
53977;SDS011;39886;47.984;-1.586;2023-02-21T10:23:12;4.00;;;2.20;;
53977;SDS011;39886;47.984;-1.586;2023-02-21T10:25:44;3.97;;;2.00;;
53977;SDS011;39886;47.984;-1.586;2023-02-21T10:28:16;4.68;;;2.40;;
53977;SDS011;39886;47.984;-1.586;2023-02-21T10:33:09;4.53;;;2.20;;
53977;SDS011;39886;47.984;-1.586;2023-02-21T10:35:35;5.65;;;2.17;;
53977;SDS011;39886;47.984;-1.586;2023-02-21T10:38:02;3.88;;;1.85;;
53977;SDS011;39886;47.984;-1.586;2023-02-21T10:40:33;3.17;;;2.45;;
53977;SDS011;39886;47.984;-1.586;2023-02-21T10:43:14;3.42;;;2.58;;
53977;SDS011;39886;47.984;-1.586;2023-02-21T10:46:03;2.60;;;2.30;;
53977;SDS011;39886;47.984;-1.586;2023-02-21T10:48:37;4.38;;;2.20;;
53977;SDS011;39886;47.984;-1.586;2023-02-21T10:51:09;4.60;;;2.42;;
53977;SDS011;39886;47.984;-1.586;2023-02-21T10:53:39;6.45;;;2.58;;
53977;SDS011;39886;47.984;-1.586;2023-02-21T10:58:49;6.13;;;2.60;;
53977;SDS011;39886;47.984;-1.586;2023-02-21T11:03:49;2.92;;;2.30;;
53977;SDS011;39886;47.984;-1.586;2023-02-21T11:06:21;4.63;;;2.53;;
53977;SDS011;39886;47.984;-1.586;2023-02-21T11:09:27;3.25;;;2.40;;
53977;SDS011;39886;47.984;-1.586;2023-02-21T11:12:37;2.45;;;2.20;;
53977;SDS011;39886;47.984;-1.586;2023-02-21T11:17:29;3.92;;;2.78;;
53977;SDS011;39886;47.984;-1.586;2023-02-21T11:20:03;3.92;;;2.20;;
53977;SDS011;39886;47.984;-1.586;2023-02-21T11:22:41;4.95;;;2.13;;
53977;SDS011;39886;47.984;-1.586;2023-02-21T11:25:25;5.78;;;2.58;;
53977;SDS011;39886;47.984;-1.586;2023-02-21T11:28:03;4.65;;;2.90;;
53977;SDS011;39886;47.984;-1.586;2023-02-21T11:30:33;6.60;;;2.67;;
53977;SDS011;39886;47.984;-1.586;2023-02-21T11:33:01;4.07;;;2.67;;
53977;SDS011;39886;47.984;-1.586;2023-02-21T11:38:00;19.25;;;2.95;;
53977;SDS011;39886;47.984;-1.586;2023-02-21T11:43:11;4.72;;;2.70;;
53977;SDS011;39886;47.984;-1.586;2023-02-21T11:45:54;6.32;;;2.65;;
53977;SDS011;39886;47.984;-1.586;2023-02-21T11:48:23;5.40;;;2.65;;
53977;SDS011;39886;47.984;-1.586;2023-02-21T11:50:55;4.45;;;2.70;;
53977;SDS011;39886;47.984;-1.586;2023-02-21T11:58:30;6.15;;;3.13;;
53977;SDS011;39886;47.984;-1.586;2023-02-21T12:01:07;5.32;;;2.53;;
53977;SDS011;39886;47.984;-1.586;2023-02-21T12:03:59;3.10;;;2.47;;
53977;SDS011;39886;47.984;-1.586;2023-02-21T12:14:33;4.25;;;2.40;;
53977;SDS011;39886;47.984;-1.586;2023-02-21T12:20:06;6.05;;;3.10;;
53977;SDS011;39886;47.984;-1.586;2023-02-21T12:23:38;4.03;;;2.28;;
53977;SDS011;39886;47.984;-1.586;2023-02-21T12:25:46;4.68;;;2.55;;
53977;SDS011;39886;47.984;-1.586;2023-02-21T12:28:52;3.58;;;2.58;;
53977;SDS011;39886;47.984;-1.586;2023-02-21T12:37:25;4.68;;;2.80;;
53977;SDS011;39886;47.984;-1.586;2023-02-21T12:42:39;5.47;;;2.70;;
53977;SDS011;39886;47.984;-1.586;2023-02-21T12:48:29;6.03;;;2.60;;
53977;SDS011;39886;47.984;-1.586;2023-02-21T12:51:17;4.82;;;2.55;;
53977;SDS011;39886;47.984;-1.586;2023-02-21T12:53:48;3.63;;;2.60;;
53977;SDS011;39886;47.984;-1.586;2023-02-21T12:56:56;4.57;;;2.42;;
53977;SDS011;39886;47.984;-1.586;2023-02-21T13:05:32;5.15;;;2.58;;
53977;SDS011;39886;47.984;-1.586;2023-02-21T13:08:51;3.70;;;2.30;;
53977;SDS011;39886;47.984;-1.586;2023-02-21T13:11:36;6.32;;;2.28;;
53977;SDS011;39886;47.984;-1.586;2023-02-21T13:14:09;3.60;;;2.47;;
53977;SDS011;39886;47.984;-1.586;2023-02-21T13:16:38;2.97;;;2.40;;
53977;SDS011;39886;47.984;-1.586;2023-02-21T13:19:06;3.58;;;2.25;;
53977;SDS011;39886;47.984;-1.586;2023-02-21T13:24:30;5.03;;;2.50;;
53977;SDS011;39886;47.984;-1.586;2023-02-21T13:30:24;6.38;;;3.03;;
53977;SDS011;39886;47.984;-1.586;2023-02-21T13:32:58;6.05;;;3.30;;
53977;SDS011;39886;47.984;-1.586;2023-02-21T13:35:27;5.47;;;2.78;;
53977;SDS011;39886;47.984;-1.586;2023-02-21T13:37:59;7.63;;;3.13;;
53977;SDS011;39886;47.984;-1.586;2023-02-21T13:40:44;4.28;;;3.03;;
53977;SDS011;39886;47.984;-1.586;2023-02-21T13:43:45;5.63;;;3.13;;
53977;SDS011;39886;47.984;-1.586;2023-02-21T14:03:00;6.95;;;3.15;;
53977;SDS011;39886;47.984;-1.586;2023-02-21T14:10:49;4.63;;;3.00;;
53977;SDS011;39886;47.984;-1.586;2023-02-21T14:21:05;4.30;;;2.70;;
53977;SDS011;39886;47.984;-1.586;2023-02-21T14:23:57;5.43;;;2.72;;
53977;SDS011;39886;47.984;-1.586;2023-02-21T14:34:12;4.80;;;2.60;;
53977;SDS011;39886;47.984;-1.586;2023-02-21T14:36:39;5.00;;;2.75;;
53977;SDS011;39886;47.984;-1.586;2023-02-21T14:39:06;5.10;;;3.17;;
53977;SDS011;39886;47.984;-1.586;2023-02-21T14:41:36;4.28;;;2.88;;
53977;SDS011;39886;47.984;-1.586;2023-02-21T15:10:13;3.55;;;2.58;;
53977;SDS011;39886;47.984;-1.586;2023-02-21T15:12:42;3.65;;;2.65;;
53977;SDS011;39886;47.984;-1.586;2023-02-21T15:15:15;4.00;;;2.70;;
53977;SDS011;39886;47.984;-1.586;2023-02-21T15:18:12;5.03;;;2.80;;
53977;SDS011;39886;47.984;-1.586;2023-02-21T15:23:48;5.95;;;2.90;;
53977;SDS011;39886;47.984;-1.586;2023-02-21T15:26:36;5.90;;;2.83;;
53977;SDS011;39886;47.984;-1.586;2023-02-21T15:29:07;5.88;;;2.88;;
53977;SDS011;39886;47.984;-1.586;2023-02-21T15:31:34;5.13;;;2.88;;
53977;SDS011;39886;47.984;-1.586;2023-02-21T15:34:03;5.72;;;3.03;;
53977;SDS011;39886;47.984;-1.586;2023-02-21T15:36:29;4.95;;;2.83;;
53977;SDS011;39886;47.984;-1.586;2023-02-21T15:39:16;3.53;;;2.72;;
53977;SDS011;39886;47.984;-1.586;2023-02-21T15:41:51;4.40;;;2.92;;
53977;SDS011;39886;47.984;-1.586;2023-02-21T15:44:22;4.80;;;2.80;;
53977;SDS011;39886;47.984;-1.586;2023-02-21T15:47:16;7.97;;;3.00;;
53977;SDS011;39886;47.984;-1.586;2023-02-21T15:49:50;4.55;;;2.88;;
53977;SDS011;39886;47.984;-1.586;2023-02-21T15:58:09;5.55;;;2.80;;
53977;SDS011;39886;47.984;-1.586;2023-02-21T16:00:38;5.72;;;2.67;;
53977;SDS011;39886;47.984;-1.586;2023-02-21T16:03:25;5.70;;;2.90;;
53977;SDS011;39886;47.984;-1.586;2023-02-21T16:05:55;7.43;;;3.10;;
53977;SDS011;39886;47.984;-1.586;2023-02-21T16:08:35;5.88;;;2.80;;
53977;SDS011;39886;47.984;-1.586;2023-02-21T16:11:03;7.38;;;2.85;;
53977;SDS011;39886;47.984;-1.586;2023-02-21T16:13:38;6.85;;;2.85;;
53977;SDS011;39886;47.984;-1.586;2023-02-21T16:16:05;5.07;;;3.38;;
53977;SDS011;39886;47.984;-1.586;2023-02-21T16:18:32;5.20;;;2.80;;
53977;SDS011;39886;47.984;-1.586;2023-02-21T16:21:00;4.55;;;2.95;;
53977;SDS011;39886;47.984;-1.586;2023-02-21T16:23:32;5.03;;;3.20;;
53977;SDS011;39886;47.984;-1.586;2023-02-21T16:28:33;4.15;;;2.42;;
53977;SDS011;39886;47.984;-1.586;2023-02-21T16:31:02;6.47;;;2.97;;
53977;SDS011;39886;47.984;-1.586;2023-02-21T16:33:30;4.25;;;2.90;;
53977;SDS011;39886;47.984;-1.586;2023-02-21T16:35:57;4.80;;;2.53;;
53977;SDS011;39886;47.984;-1.586;2023-02-21T16:38:24;8.95;;;2.97;;
53977;SDS011;39886;47.984;-1.586;2023-02-21T16:40:51;4.70;;;3.00;;
53977;SDS011;39886;47.984;-1.586;2023-02-21T16:43:27;8.32;;;3.35;;
53977;SDS011;39886;47.984;-1.586;2023-02-21T16:45:54;3.50;;;2.60;;
53977;SDS011;39886;47.984;-1.586;2023-02-21T16:48:28;5.43;;;2.72;;
53977;SDS011;39886;47.984;-1.586;2023-02-21T16:50:57;9.82;;;3.45;;
53977;SDS011;39886;47.984;-1.586;2023-02-21T16:53:29;3.95;;;3.20;;
53977;SDS011;39886;47.984;-1.586;2023-02-21T16:55:55;6.68;;;3.28;;
53977;SDS011;39886;47.984;-1.586;2023-02-21T17:00:55;3.53;;;2.88;;
53977;SDS011;39886;47.984;-1.586;2023-02-21T17:03:24;4.10;;;2.83;;
53977;SDS011;39886;47.984;-1.586;2023-02-21T17:05:52;5.10;;;2.70;;
53977;SDS011;39886;47.984;-1.586;2023-02-21T17:08:19;5.28;;;2.95;;
53977;SDS011;39886;47.984;-1.586;2023-02-21T17:10:45;7.05;;;3.50;;
53977;SDS011;39886;47.984;-1.586;2023-02-21T17:13:11;5.88;;;3.10;;
53977;SDS011;39886;47.984;-1.586;2023-02-21T17:15:37;4.75;;;2.83;;
53977;SDS011;39886;47.984;-1.586;2023-02-21T17:18:03;3.45;;;2.78;;
53977;SDS011;39886;47.984;-1.586;2023-02-21T17:20:29;6.72;;;3.17;;
53977;SDS011;39886;47.984;-1.586;2023-02-21T17:22:55;3.95;;;2.70;;
53977;SDS011;39886;47.984;-1.586;2023-02-21T17:25:25;5.38;;;2.92;;
53977;SDS011;39886;47.984;-1.586;2023-02-21T17:27:52;3.90;;;2.80;;
53977;SDS011;39886;47.984;-1.586;2023-02-21T17:30:18;5.45;;;2.83;;
53977;SDS011;39886;47.984;-1.586;2023-02-21T17:32:46;4.57;;;3.00;;
53977;SDS011;39886;47.984;-1.586;2023-02-21T17:35:13;4.22;;;3.08;;
53977;SDS011;39886;47.984;-1.586;2023-02-21T17:37:41;4.28;;;2.70;;
53977;SDS011;39886;47.984;-1.586;2023-02-21T17:40:08;3.90;;;2.55;;
53977;SDS011;39886;47.984;-1.586;2023-02-21T17:42:34;3.83;;;3.03;;
53977;SDS011;39886;47.984;-1.586;2023-02-21T17:45:00;5.20;;;2.60;;
53977;SDS011;39886;47.984;-1.586;2023-02-21T17:47:27;3.70;;;2.42;;
53977;SDS011;39886;47.984;-1.586;2023-02-21T17:49:53;4.53;;;2.90;;
53977;SDS011;39886;47.984;-1.586;2023-02-21T17:52:21;5.45;;;3.40;;
53977;SDS011;39886;47.984;-1.586;2023-02-21T17:54:47;4.38;;;3.13;;
53977;SDS011;39886;47.984;-1.586;2023-02-21T17:57:12;3.97;;;2.80;;
53977;SDS011;39886;47.984;-1.586;2023-02-21T17:59:38;5.15;;;3.08;;
53977;SDS011;39886;47.984;-1.586;2023-02-21T18:02:05;6.70;;;3.03;;
53977;SDS011;39886;47.984;-1.586;2023-02-21T18:04:32;5.25;;;3.00;;
53977;SDS011;39886;47.984;-1.586;2023-02-21T18:06:58;4.35;;;2.78;;